メインページ
METAR-TAF:

METAR-TAF

空港 :

シモン・ボリバル国際空港

カラカス, ベネズエラ

緯度: 10-36N, 経度: 066-59W, 海抜: 43m

現時点の気象観測

当レポートは1時間9分前の07:00(UTC)に作成
の風 2kt
気温 25°C
湿度 83%
気圧 1011 hPa
視程10km以上
高度1600ftの雲はほとんどない

METAR: SVMI 190700Z 09002KT 9999 FEW016 25/22 Q1011

時間: 04:09 (08:09 UTC)

予報

当レポートは4時間9分前の04:00(UTC)に作成
予報は19日の 06時(UTC)から 20日の 06時(UTC)まで有効
の風 2kt
視程10km以上
高度1600ftの千切れ雲あり
19日の 06時(UTC)から 19日の 10時(UTC)まで徐々に
の風 kt
視程10km以上
高度1600ftの雲は散在している

TAF: SVMI 190400Z 1906/2006 09002KT 9999 BKN016 TX26/18Z TN22/07Z BECMG 1906/1910 00000KT 9999 SCT016

4,000以上の空港の気象観測と天気予報(METAR報とTAF報)

利用可能な観測所は地図上に黄色い丸と赤い丸で示す。

丸の上にカーソルを重ねると観測所名を参照できる。

次にクリックすると気象観測と天気予報を参照できる。

マップの切り替え:黒色「×」印の緑ボタンをクリックして拡大、「-」印の緑ボタンをクリックして縮小、緑色の三角印をクリックして隣りの地図に切り替え


METAR-TAF: